createdAt,value
2023-03-21T00:01:54.243Z,4.27
2023-03-21T00:04:33.173Z,3.15
2023-03-21T00:07:10.668Z,3.80
2023-03-21T00:09:43.301Z,3.50
2023-03-21T00:12:16.736Z,3.17
2023-03-21T00:14:49.327Z,3.80
2023-03-21T00:17:23.947Z,3.58
2023-03-21T00:19:56.911Z,3.50
2023-03-21T00:22:28.796Z,3.30
2023-03-21T00:25:01.660Z,2.83
2023-03-21T00:27:53.250Z,3.40
2023-03-21T00:30:28.098Z,3.17
2023-03-21T00:33:05.879Z,3.22
2023-03-21T00:36:05.709Z,3.05
2023-03-21T00:38:39.797Z,3.53
2023-03-21T00:41:23.716Z,3.27
2023-03-21T00:44:04.623Z,3.20
2023-03-21T00:46:47.040Z,2.80
2023-03-21T00:49:22.064Z,3.25
2023-03-21T00:51:55.206Z,2.92
2023-03-21T00:54:30.034Z,3.37
2023-03-21T00:57:03.499Z,3.35
2023-03-21T00:59:36.092Z,3.15
2023-03-21T01:02:08.008Z,3.10
2023-03-21T01:04:41.203Z,3.00
2023-03-21T01:07:13.135Z,2.90
2023-03-21T01:09:45.955Z,3.63
2023-03-21T01:12:17.853Z,3.05
2023-03-21T01:14:50.804Z,2.70
2023-03-21T01:17:22.704Z,2.88
2023-03-21T01:19:55.634Z,2.80
2023-03-21T01:22:28.243Z,3.30
2023-03-21T01:25:19.275Z,2.78
2023-03-21T01:27:54.713Z,3.08
2023-03-21T01:30:31.204Z,2.90
2023-03-21T01:33:03.762Z,2.67
2023-03-21T01:35:49.263Z,2.60
2023-03-21T01:38:26.382Z,2.88
2023-03-21T01:41:17.163Z,3.00
2023-03-21T01:43:53.113Z,2.30
2023-03-21T01:47:03.584Z,3.17
2023-03-21T01:49:56.764Z,3.08
2023-03-21T01:52:38.764Z,3.03
2023-03-21T01:55:20.996Z,2.72
2023-03-21T01:58:06.629Z,2.97
2023-03-21T02:00:59.203Z,3.30
2023-03-21T02:03:50.004Z,3.15
2023-03-21T02:07:01.267Z,2.90
2023-03-21T02:09:52.439Z,2.90
2023-03-21T02:12:28.202Z,3.20
2023-03-21T02:15:02.287Z,3.70
2023-03-21T02:18:27.945Z,3.40
2023-03-21T02:21:21.224Z,3.15
2023-03-21T02:24:04.101Z,3.50
2023-03-21T02:27:24.284Z,2.72
2023-03-21T02:35:05.459Z,3.00
2023-03-21T02:38:22.470Z,3.17
2023-03-21T02:41:17.960Z,3.05
2023-03-21T02:44:27.504Z,3.10
2023-03-21T02:47:07.329Z,3.17
2023-03-21T02:49:54.468Z,2.75
2023-03-21T02:52:39.298Z,3.33
2023-03-21T02:55:22.792Z,2.90
2023-03-21T02:58:11.835Z,3.08
2023-03-21T03:00:49.464Z,3.00
2023-03-21T03:03:37.186Z,2.65
2023-03-21T03:06:27.926Z,2.95
2023-03-21T03:09:16.683Z,2.88
2023-03-21T03:11:58.491Z,3.47
2023-03-21T03:15:18.053Z,2.83
2023-03-21T03:18:07.399Z,2.92
2023-03-21T03:20:48.834Z,2.70
2023-03-21T03:23:43.396Z,2.92
2023-03-21T03:26:34.774Z,2.95
2023-03-21T03:29:12.436Z,3.13
2023-03-21T03:31:58.536Z,2.80
2023-03-21T03:34:44.188Z,2.78
2023-03-21T03:37:26.552Z,2.70
2023-03-21T03:40:08.916Z,3.00
2023-03-21T03:42:55.180Z,3.00
2023-03-21T03:45:42.839Z,2.75
2023-03-21T03:48:33.502Z,2.80
2023-03-21T03:51:16.192Z,2.53
2023-03-21T03:54:19.087Z,2.92
2023-03-21T03:56:51.270Z,3.00
2023-03-21T03:59:25.384Z,3.30
2023-03-21T04:02:15.001Z,3.42
2023-03-21T04:04:48.885Z,3.35
2023-03-21T04:07:22.326Z,3.38
2023-03-21T04:09:58.291Z,2.90
2023-03-21T04:12:30.946Z,3.45
2023-03-21T04:15:23.494Z,3.28
2023-03-21T04:18:01.204Z,3.00
2023-03-21T04:20:37.180Z,3.17
2023-03-21T04:23:11.459Z,3.00
2023-03-21T04:25:55.902Z,3.35
2023-03-21T04:28:33.590Z,2.80
2023-03-21T04:31:25.602Z,3.08
2023-03-21T04:34:12.868Z,3.00
2023-03-21T04:36:54.058Z,3.10
2023-03-21T04:39:26.786Z,2.88
2023-03-21T04:41:59.202Z,3.22
2023-03-21T04:44:33.255Z,3.42
2023-03-21T04:47:05.669Z,3.30
2023-03-21T04:49:38.325Z,3.00
2023-03-21T04:52:10.752Z,2.72
2023-03-21T04:54:44.084Z,2.90
2023-03-21T04:57:16.635Z,3.20
2023-03-21T04:59:49.197Z,3.03
2023-03-21T05:02:21.599Z,2.80
2023-03-21T05:04:54.166Z,2.72
2023-03-21T05:07:26.378Z,2.60
2023-03-21T05:10:02.316Z,3.42
2023-03-21T05:12:35.980Z,3.13
2023-03-21T05:15:09.990Z,2.90
2023-03-21T05:17:42.889Z,3.28
2023-03-21T05:20:17.635Z,3.17
2023-03-21T05:22:51.421Z,2.90
2023-03-21T05:25:34.328Z,3.33
2023-03-21T05:28:18.045Z,3.00
2023-03-21T05:30:51.570Z,3.28
2023-03-21T05:33:24.691Z,3.20
2023-03-21T05:35:57.357Z,3.13
2023-03-21T05:38:33.505Z,2.88
2023-03-21T05:41:06.487Z,3.57
2023-03-21T05:43:38.622Z,2.85
2023-03-21T05:46:12.201Z,3.28
2023-03-21T05:48:44.145Z,2.75
2023-03-21T05:51:22.109Z,2.60
2023-03-21T05:53:54.063Z,3.27
2023-03-21T05:56:27.599Z,3.30
2023-03-21T05:59:04.072Z,2.78
2023-03-21T06:01:41.457Z,2.80
2023-03-21T06:04:18.973Z,3.30
2023-03-21T06:06:53.771Z,3.00
2023-03-21T06:09:27.588Z,3.45
2023-03-21T06:12:04.441Z,3.42
2023-03-21T06:14:43.689Z,2.90
2023-03-21T06:17:36.540Z,3.28
2023-03-21T06:20:13.721Z,3.93
2023-03-21T06:22:54.269Z,3.05
2023-03-21T06:25:26.370Z,3.13
2023-03-21T06:27:59.563Z,3.60
2023-03-21T06:30:32.634Z,3.35
2023-03-21T06:33:19.218Z,3.40
2023-03-21T06:35:57.188Z,2.83
2023-03-21T06:38:30.329Z,2.50
2023-03-21T06:41:05.062Z,3.00
2023-03-21T06:43:45.996Z,2.60
2023-03-21T06:46:19.107Z,2.80
2023-03-21T06:48:51.266Z,3.15
2023-03-21T06:51:24.181Z,2.65
2023-03-21T06:54:18.897Z,2.83
2023-03-21T06:57:00.711Z,3.00
2023-03-21T06:59:36.530Z,2.77
2023-03-21T07:02:12.964Z,3.47
2023-03-21T07:05:08.348Z,2.60
2023-03-21T07:07:42.081Z,2.40
2023-03-21T07:10:14.175Z,2.97
2023-03-21T07:13:00.998Z,2.80
2023-03-21T07:15:55.893Z,2.88
2023-03-21T07:18:31.532Z,2.80
2023-03-21T07:21:04.059Z,3.30
2023-03-21T07:23:38.598Z,3.17
2023-03-21T07:26:11.049Z,3.60
2023-03-21T07:28:45.598Z,3.90
2023-03-21T07:31:19.512Z,4.25
2023-03-21T07:33:54.640Z,3.20
2023-03-21T07:36:28.429Z,3.60
2023-03-21T07:39:01.504Z,4.07
2023-03-21T07:41:33.926Z,4.00
2023-03-21T07:44:17.879Z,4.40
2023-03-21T07:46:50.454Z,3.90
2023-03-21T07:49:24.033Z,3.88
2023-03-21T07:51:56.684Z,4.25
2023-03-21T07:54:29.410Z,3.60
2023-03-21T07:57:01.376Z,3.88
2023-03-21T07:59:34.953Z,3.83
2023-03-21T08:02:07.327Z,4.25
2023-03-21T08:04:40.412Z,4.18
2023-03-21T08:07:12.709Z,3.95
2023-03-21T08:09:45.926Z,4.65
2023-03-21T08:12:18.301Z,4.30
2023-03-21T08:14:50.953Z,4.35
2023-03-21T08:17:23.349Z,4.50
2023-03-21T08:19:55.882Z,4.90
2023-03-21T08:22:27.964Z,4.53
2023-03-21T08:25:00.969Z,4.40
2023-03-21T08:27:33.866Z,4.68
2023-03-21T08:30:07.361Z,4.35
2023-03-21T08:32:40.660Z,4.53
2023-03-21T08:35:17.352Z,4.43
2023-03-21T08:37:49.763Z,5.13
2023-03-21T08:40:22.583Z,3.95
2023-03-21T08:42:55.394Z,3.58
2023-03-21T08:45:28.583Z,4.35
2023-03-21T08:48:02.498Z,4.10
2023-03-21T08:50:36.522Z,4.22
2023-03-21T08:53:08.624Z,3.67
2023-03-21T08:55:47.291Z,4.15
2023-03-21T08:58:19.577Z,3.57
2023-03-21T09:00:52.992Z,3.92
2023-03-21T09:03:27.269Z,3.67
2023-03-21T09:06:01.037Z,3.40
2023-03-21T09:08:32.943Z,3.65
2023-03-21T09:11:06.235Z,3.60
2023-03-21T09:13:38.606Z,3.70
2023-03-21T09:16:11.706Z,3.50
2023-03-21T09:18:47.258Z,3.60
2023-03-21T09:21:23.750Z,3.72
2023-03-21T09:23:58.778Z,3.37
2023-03-21T09:26:31.458Z,3.40
2023-03-21T09:29:04.891Z,2.85
2023-03-21T09:31:37.633Z,3.10
2023-03-21T09:34:09.829Z,3.15
2023-03-21T09:36:44.569Z,2.97
2023-03-21T09:39:17.075Z,2.63
2023-03-21T09:42:17.872Z,3.00
2023-03-21T09:45:19.654Z,3.08
2023-03-21T09:47:57.320Z,3.00
2023-03-21T09:50:34.666Z,3.03
2023-03-21T09:53:27.933Z,3.10
2023-03-21T09:56:02.427Z,2.80
2023-03-21T09:58:53.499Z,2.60
2023-03-21T10:01:34.186Z,3.00
2023-03-21T10:04:12.915Z,3.17
2023-03-21T10:06:57.783Z,3.00
2023-03-21T10:09:32.611Z,2.90
2023-03-21T10:12:15.052Z,3.35
2023-03-21T10:14:57.070Z,3.25
2023-03-21T10:17:41.121Z,3.40
2023-03-21T10:20:29.188Z,3.63
2023-03-21T10:23:07.008Z,3.33
2023-03-21T10:25:54.611Z,3.53
2023-03-21T10:28:52.036Z,3.00
2023-03-21T10:31:28.651Z,3.13
2023-03-21T10:34:12.001Z,3.30
2023-03-21T10:36:44.918Z,2.92
2023-03-21T10:39:36.322Z,2.75
2023-03-21T10:42:25.093Z,3.15
2023-03-21T10:44:58.874Z,2.67
2023-03-21T10:47:32.505Z,3.42
2023-03-21T10:53:19.884Z,3.15
2023-03-21T10:55:56.624Z,2.75
2023-03-21T10:58:35.358Z,2.97
2023-03-21T11:01:16.038Z,3.25
2023-03-21T11:03:48.538Z,3.17
2023-03-21T11:06:31.490Z,2.90
2023-03-21T11:09:16.738Z,2.90
2023-03-21T11:12:09.392Z,2.97
2023-03-21T11:14:44.946Z,3.08
2023-03-21T11:17:19.058Z,3.00
2023-03-21T11:20:00.215Z,3.15
2023-03-21T11:22:44.651Z,3.40
2023-03-21T11:25:38.377Z,3.00
2023-03-21T11:28:22.021Z,3.85
2023-03-21T11:31:01.114Z,3.60
2023-03-21T11:33:42.854Z,3.60
2023-03-21T11:36:21.774Z,3.92
2023-03-21T11:39:44.300Z,3.33
2023-03-21T11:42:32.788Z,3.22
2023-03-21T11:45:21.798Z,3.33
2023-03-21T11:47:56.933Z,3.30
2023-03-21T11:50:35.792Z,3.42
2023-03-21T11:53:41.651Z,3.33
2023-03-21T11:56:37.153Z,3.78
2023-03-21T11:59:37.768Z,3.72
2023-03-21T12:02:56.390Z,3.60
2023-03-21T12:05:44.940Z,3.97
2023-03-21T12:12:38.853Z,3.67
2023-03-21T12:15:32.186Z,4.10
2023-03-21T12:18:32.775Z,4.03
2023-03-21T12:21:35.999Z,4.30
2023-03-21T12:24:21.695Z,3.97
2023-03-21T12:27:28.234Z,3.50
2023-03-21T12:30:10.046Z,3.90
2023-03-21T12:32:49.711Z,3.65
2023-03-21T12:35:49.818Z,3.42
2023-03-21T12:38:59.472Z,4.17
2023-03-21T12:41:50.957Z,4.10
2023-03-21T12:44:26.374Z,3.15
2023-03-21T12:47:11.990Z,3.22
2023-03-21T12:50:03.758Z,3.65
2023-03-21T12:52:45.277Z,2.50
2023-03-21T12:55:25.666Z,2.75
2023-03-21T12:58:26.208Z,2.85
2023-03-21T13:01:01.640Z,2.53
2023-03-21T13:03:44.446Z,2.08
2023-03-21T13:06:18.741Z,2.13
2023-03-21T13:09:36.835Z,2.35
2023-03-21T13:12:36.049Z,1.83
2023-03-21T13:15:24.679Z,1.77
2023-03-21T13:18:36.088Z,1.70
2023-03-21T13:21:42.530Z,1.97
2023-03-21T13:24:33.174Z,1.80
2023-03-21T13:27:31.851Z,1.70
2023-03-21T13:30:20.894Z,2.00
2023-03-21T13:33:07.812Z,1.60
2023-03-21T13:35:44.306Z,2.03
2023-03-21T13:38:29.007Z,1.90
2023-03-21T13:41:27.387Z,1.73
2023-03-21T13:44:50.142Z,2.72
2023-03-21T13:47:36.131Z,1.70
2023-03-21T13:50:18.166Z,1.80
2023-03-21T13:53:21.300Z,2.13
2023-03-21T13:56:21.691Z,1.70
2023-03-21T13:58:59.340Z,1.98
2023-03-21T14:01:39.610Z,2.03
2023-03-21T14:04:14.902Z,1.73
2023-03-21T14:07:21.721Z,1.50
2023-03-21T14:10:01.345Z,1.70
2023-03-21T14:12:42.647Z,2.25
2023-03-21T14:15:40.880Z,2.10
2023-03-21T14:18:28.240Z,2.37
2023-03-21T14:24:17.564Z,2.78
2023-03-21T14:26:55.250Z,2.35
2023-03-21T14:29:34.501Z,2.00
2023-03-21T14:35:02.388Z,1.90
2023-03-21T14:37:42.342Z,2.40
2023-03-21T14:40:22.935Z,2.00
2023-03-21T14:45:55.295Z,2.00
2023-03-21T14:48:34.064Z,2.75
2023-03-21T14:51:11.356Z,2.08
2023-03-21T14:53:44.754Z,2.28
2023-03-21T14:56:25.712Z,2.40
2023-03-21T14:58:58.414Z,2.57
2023-03-21T15:01:35.209Z,2.40
2023-03-21T15:04:07.640Z,2.30
2023-03-21T15:09:55.911Z,2.38
2023-03-21T15:12:29.057Z,2.50
2023-03-21T15:15:01.865Z,2.50
2023-03-21T15:17:34.304Z,1.85
2023-03-21T15:20:34.504Z,2.30
2023-03-21T15:23:14.007Z,2.40
2023-03-21T15:25:47.094Z,2.47
2023-03-21T15:28:20.033Z,3.00
2023-03-21T15:30:53.884Z,2.72
2023-03-21T15:33:28.004Z,2.25
2023-03-21T15:36:29.230Z,2.75
2023-03-21T15:39:08.155Z,2.40
2023-03-21T15:41:40.212Z,2.35
2023-03-21T15:44:16.081Z,2.33
2023-03-21T15:46:52.787Z,2.40
2023-03-21T15:49:35.062Z,2.78
2023-03-21T15:52:17.471Z,2.43
2023-03-21T15:54:55.874Z,2.30
2023-03-21T15:57:34.437Z,2.03
2023-03-21T16:00:34.159Z,2.08
2023-03-21T16:03:39.248Z,2.55
2023-03-21T16:06:33.606Z,2.03
2023-03-21T16:09:09.709Z,2.35
2023-03-21T16:11:44.581Z,2.33
2023-03-21T16:14:19.136Z,2.53
2023-03-21T16:16:52.864Z,2.60
2023-03-21T16:19:30.008Z,2.30
2023-03-21T16:22:02.174Z,2.47
2023-03-21T16:24:34.900Z,2.20
2023-03-21T16:27:11.977Z,2.28
2023-03-21T16:29:44.244Z,3.03
2023-03-21T16:32:19.032Z,2.23
2023-03-21T16:34:53.600Z,2.42
2023-03-21T16:37:26.914Z,1.88
2023-03-21T16:39:59.694Z,2.45
2023-03-21T16:42:31.911Z,2.20
2023-03-21T16:45:05.367Z,2.20
2023-03-21T16:47:37.463Z,2.00
2023-03-21T16:50:33.567Z,2.00
2023-03-21T16:53:06.371Z,2.33
2023-03-21T16:55:38.848Z,1.95
2023-03-21T16:58:15.986Z,2.47
2023-03-21T17:00:48.758Z,2.28
2023-03-21T17:03:22.001Z,2.42
2023-03-21T17:05:54.391Z,2.20
2023-03-21T17:08:29.079Z,2.00
2023-03-21T17:11:06.904Z,2.07
2023-03-21T17:13:40.726Z,2.20
2023-03-21T17:16:16.708Z,2.22
2023-03-21T17:18:49.672Z,2.20
2023-03-21T17:21:26.533Z,2.50
2023-03-21T17:23:58.382Z,2.53
2023-03-21T17:26:31.570Z,2.60
2023-03-21T17:29:04.464Z,2.33
2023-03-21T17:31:38.481Z,2.72
2023-03-21T17:34:20.246Z,2.45
2023-03-21T17:36:52.966Z,2.83
2023-03-21T17:39:28.994Z,2.40
2023-03-21T17:42:02.252Z,2.35
2023-03-21T17:44:34.983Z,2.30
2023-03-21T17:47:29.794Z,2.47
2023-03-21T17:50:04.230Z,2.60
2023-03-21T17:52:37.848Z,2.47
2023-03-21T17:55:11.557Z,2.60
2023-03-21T17:57:43.836Z,2.40
2023-03-21T18:00:26.083Z,2.70
2023-03-21T18:02:58.864Z,2.38
2023-03-21T18:05:32.187Z,2.85
2023-03-21T18:08:11.325Z,2.30
2023-03-21T18:10:44.101Z,2.50
2023-03-21T18:13:16.413Z,2.67
2023-03-21T18:15:51.060Z,2.87
2023-03-21T18:18:27.073Z,2.42
2023-03-21T18:20:59.767Z,2.22
2023-03-21T18:23:32.505Z,2.55
2023-03-21T18:26:07.198Z,2.42
2023-03-21T18:28:41.304Z,2.33
2023-03-21T18:31:19.852Z,2.42
2023-03-21T18:33:55.945Z,2.63
2023-03-21T18:36:29.154Z,2.10
2023-03-21T18:39:05.465Z,2.60
2023-03-21T18:41:39.597Z,2.50
2023-03-21T18:44:19.382Z,2.53
2023-03-21T18:46:54.426Z,2.50
2023-03-21T18:50:05.900Z,2.63
2023-03-21T18:52:19.741Z,2.30
2023-03-21T18:54:53.232Z,2.10
2023-03-21T18:57:36.542Z,2.28
2023-03-21T19:00:16.984Z,2.58
2023-03-21T19:05:44.935Z,2.13
2023-03-21T19:08:18.055Z,2.10
2023-03-21T19:10:51.207Z,2.63
2023-03-21T19:13:24.231Z,2.38
2023-03-21T19:15:57.094Z,3.38
2023-03-21T19:21:24.601Z,2.27
2023-03-21T19:24:25.106Z,2.35
2023-03-21T19:26:51.190Z,2.58
2023-03-21T19:29:24.911Z,2.55
2023-03-21T19:31:58.016Z,2.50
2023-03-21T19:34:30.404Z,2.90
2023-03-21T19:37:02.813Z,3.17
2023-03-21T19:39:38.312Z,2.67
2023-03-21T19:42:16.456Z,2.80
2023-03-21T19:44:50.425Z,2.75
2023-03-21T19:47:23.116Z,2.70
2023-03-21T19:50:40.896Z,2.97
2023-03-21T19:52:48.640Z,3.60
2023-03-21T19:55:21.738Z,2.63
2023-03-21T19:57:54.745Z,2.85
2023-03-21T20:00:27.039Z,2.90
2023-03-21T20:02:59.843Z,2.70
2023-03-21T20:05:31.758Z,2.40
2023-03-21T20:08:05.082Z,2.60
2023-03-21T20:13:33.092Z,9.98
2023-03-21T20:16:05.697Z,3.60
2023-03-21T20:18:38.100Z,2.65
2023-03-21T20:21:17.590Z,2.80
2023-03-21T20:23:51.000Z,2.80
2023-03-21T20:26:23.814Z,2.93
2023-03-21T20:29:27.978Z,3.20
2023-03-21T20:31:51.115Z,3.33
2023-03-21T20:34:23.058Z,3.45
2023-03-21T20:36:55.898Z,3.38
2023-03-21T20:39:29.882Z,3.50
2023-03-21T20:42:03.692Z,3.80
2023-03-21T20:44:57.167Z,3.90
2023-03-21T20:47:28.452Z,3.40
2023-03-21T20:50:23.053Z,3.17
2023-03-21T20:53:06.400Z,2.97
2023-03-21T20:55:40.235Z,3.33
2023-03-21T20:58:36.746Z,3.03
2023-03-21T21:01:15.348Z,3.13
2023-03-21T21:03:49.421Z,3.10
2023-03-21T21:06:23.307Z,3.50
2023-03-21T21:08:55.754Z,3.28
2023-03-21T21:14:22.061Z,3.45
2023-03-21T21:16:55.753Z,3.63
2023-03-21T21:19:28.633Z,3.60
2023-03-21T21:22:01.173Z,3.50
2023-03-21T21:24:34.210Z,3.65
2023-03-21T21:27:06.864Z,3.45
2023-03-21T21:29:39.806Z,2.90
2023-03-21T21:32:12.185Z,3.10
2023-03-21T21:34:45.141Z,2.92
2023-03-21T21:37:18.753Z,2.92
2023-03-21T21:39:51.331Z,2.92
2023-03-21T21:42:23.923Z,2.75
2023-03-21T21:44:57.389Z,2.67
2023-03-21T21:47:29.332Z,2.83
2023-03-21T21:50:02.172Z,3.00
2023-03-21T21:52:55.705Z,2.63
2023-03-21T21:55:27.949Z,2.92
2023-03-21T21:58:02.777Z,2.77
2023-03-21T22:00:36.255Z,3.05
2023-03-21T22:06:04.885Z,2.63
2023-03-21T22:08:37.658Z,2.70
2023-03-21T22:11:10.014Z,2.70
2023-03-21T22:14:01.165Z,2.50
2023-03-21T22:16:34.222Z,2.75
2023-03-21T22:19:06.210Z,2.78
2023-03-21T22:21:39.334Z,2.72
2023-03-21T22:24:11.280Z,3.22
2023-03-21T22:26:44.076Z,3.10
2023-03-21T22:29:18.911Z,3.00
2023-03-21T22:31:54.145Z,3.13
2023-03-21T22:34:28.039Z,2.78
2023-03-21T22:37:02.501Z,2.80
2023-03-21T22:39:35.545Z,3.95
2023-03-21T22:42:07.951Z,3.70
2023-03-21T22:44:40.214Z,3.40
2023-03-21T22:47:13.443Z,3.33
2023-03-21T22:49:46.253Z,2.85
2023-03-21T22:52:19.068Z,2.75
2023-03-21T22:54:51.551Z,3.28
2023-03-21T22:57:26.590Z,3.10
2023-03-21T22:59:58.968Z,2.83
2023-03-21T23:02:32.099Z,3.00
2023-03-21T23:05:04.658Z,2.60
2023-03-21T23:07:37.458Z,2.60
2023-03-21T23:10:12.622Z,2.67
2023-03-21T23:12:45.382Z,2.40
2023-03-21T23:15:17.776Z,2.85
2023-03-21T23:17:50.161Z,2.42
2023-03-21T23:20:22.501Z,2.70
2023-03-21T23:22:54.896Z,2.63
2023-03-21T23:25:29.443Z,3.35
2023-03-21T23:28:02.014Z,3.42
2023-03-21T23:30:34.312Z,3.10
2023-03-21T23:33:06.251Z,2.60
2023-03-21T23:35:39.497Z,3.28
2023-03-21T23:38:11.452Z,2.90
2023-03-21T23:40:44.436Z,2.70
2023-03-21T23:43:16.322Z,2.80
2023-03-21T23:45:49.134Z,3.35
2023-03-21T23:48:21.398Z,3.25
2023-03-21T23:50:54.671Z,3.20
2023-03-21T23:53:27.428Z,2.90
2023-03-21T23:56:02.049Z,2.90
2023-03-21T23:58:34.823Z,3.08
